Time;durP1;ratioP1;P1;durP2;ratioP2;P2;SDS_P1;SDS_P2;PMS_P1;PMS_P2;Temp;Humidity;BMP_temperature;BMP_pressure;BME280_temperature;BME280_humidity;BME280_pressure;Samples;Min_cycle;Max_cycle;Signal;HPM_P1;HPM_P2
2021/04/26 00:01:14;;;;;;;34.22;23.20;;;6.40;84.90;;;;;;5088552;28;20162;-73
2021/04/26 00:03:40;;;;;;;36.00;24.13;;;6.40;84.80;;;;;;5088304;28;20024;-75
2021/04/26 00:06:06;;;;;;;36.67;21.67;;;6.40;84.60;;;;;;5083077;28;20031;-73
2021/04/26 00:08:32;;;;;;;39.88;24.30;;;6.40;84.70;;;;;;5088224;28;20020;-73
2021/04/26 00:10:58;;;;;;;35.08;24.33;;;6.40;85.00;;;;;;5088922;28;20087;-73
2021/04/26 00:13:24;;;;;;;32.70;23.23;;;6.30;85.20;;;;;;5086939;28;20042;-72
2021/04/26 00:15:49;;;;;;;38.72;24.17;;;6.30;85.70;;;;;;5092509;28;20016;-72
2021/04/26 00:18:15;;;;;;;36.58;25.27;;;6.40;85.50;;;;;;5089284;28;20019;-73
2021/04/26 00:20:42;;;;;;;42.38;27.27;;;6.40;85.70;;;;;;5091972;28;20461;-73
2021/04/26 00:23:09;;;;;;;42.22;28.98;;;6.40;85.70;;;;;;5092539;28;20370;-72
2021/04/26 00:25:35;;;;;;;42.67;30.58;;;6.30;85.00;;;;;;5089023;28;20458;-73
2021/04/26 00:28:02;;;;;;;48.15;30.75;;;6.20;84.80;;;;;;5082033;28;20062;-73
2021/04/26 00:30:28;;;;;;;44.35;30.60;;;6.10;84.70;;;;;;5092216;28;20088;-74
2021/04/26 00:32:54;;;;;;;49.85;34.63;;;6.00;84.70;;;;;;5092284;28;20056;-73
2021/04/26 00:35:21;;;;;;;55.05;34.92;;;5.90;84.90;;;;;;5091357;28;20369;-74
2021/04/26 00:37:47;;;;;;;50.22;33.33;;;5.80;84.90;;;;;;5076362;28;20024;-73
2021/04/26 00:40:14;;;;;;;47.35;31.75;;;5.60;85.60;;;;;;5081434;28;20020;-72
2021/04/26 00:42:41;;;;;;;53.72;34.78;;;5.60;85.90;;;;;;5089061;28;20036;-73
2021/04/26 00:45:16;;;;;;;55.60;34.78;;;5.50;86.00;;;;;;5083979;28;20024;-73
2021/04/26 00:47:44;;;;;;;54.00;36.70;;;5.50;86.40;;;;;;5082061;28;20035;-73
2021/04/26 00:50:13;;;;;;;60.33;39.42;;;5.40;86.10;;;;;;5091376;28;20068;-73
2021/04/26 00:52:39;;;;;;;55.53;37.20;;;5.30;86.10;;;;;;5077744;28;20056;-73
2021/04/26 00:55:06;;;;;;;59.70;37.70;;;5.30;86.30;;;;;;5078572;28;20047;-72
2021/04/26 00:57:32;;;;;;;58.90;38.25;;;5.20;86.60;;;;;;5090770;28;20024;-72
2021/04/26 00:59:58;;;;;;;60.65;38.03;;;5.20;87.00;;;;;;5092219;28;20015;-74
2021/04/26 01:02:24;;;;;;;61.22;39.65;;;5.10;87.10;;;;;;5082532;28;20041;-75
2021/04/26 01:04:51;;;;;;;57.97;38.22;;;5.10;87.50;;;;;;5075321;28;20033;-73
2021/04/26 01:07:17;;;;;;;59.55;38.33;;;5.00;87.80;;;;;;5078224;28;20031;-73
2021/04/26 01:09:43;;;;;;;63.50;38.85;;;5.10;87.70;;;;;;5086583;28;20043;-73
2021/04/26 01:12:33;;;;;;;59.17;38.10;;;5.00;88.00;;;;;;5080492;28;20020;-72
2021/04/26 01:15:11;;;;;;;60.95;38.78;;;5.00;88.00;;;;;;5085431;28;20506;-73
2021/04/26 01:17:46;;;;;;;64.35;39.15;;;5.00;88.10;;;;;;5082267;28;20628;-72
2021/04/26 01:20:38;;;;;;;58.20;37.97;;;4.90;87.80;;;;;;5088456;28;20024;-73
2021/04/26 01:23:15;;;;;;;61.00;36.30;;;4.90;88.10;;;;;;5078426;28;20041;-73
2021/04/26 01:25:43;;;;;;;57.50;39.90;;;4.90;88.50;;;;;;5092028;28;20475;-73
2021/04/26 01:28:16;;;;;;;65.72;41.63;;;4.90;88.60;;;;;;5087000;28;20358;-73
2021/04/26 01:31:07;;;;;;;71.57;45.25;;;4.90;88.60;;;;;;5089760;28;20039;-73
2021/04/26 01:33:38;;;;;;;70.47;41.97;;;4.80;89.20;;;;;;5084650;28;20025;-73
2021/04/26 01:36:05;;;;;;;68.25;43.53;;;4.80;89.70;;;;;;5091443;28;20045;-72
2021/04/26 01:38:37;;;;;;;71.40;42.67;;;4.80;89.90;;;;;;5083869;28;20378;-73
2021/04/26 01:41:04;;;;;;;66.38;38.63;;;4.80;89.80;;;;;;5090866;28;20032;-73
2021/04/26 01:43:30;;;;;;;63.45;39.22;;;4.70;89.70;;;;;;5095852;28;20507;-73
2021/04/26 01:45:59;;;;;;;58.63;36.78;;;4.60;89.70;;;;;;5095301;28;20019;-73
2021/04/26 01:48:31;;;;;;;58.28;38.42;;;4.60;89.80;;;;;;5095873;28;20020;-75
2021/04/26 01:50:58;;;;;;;55.40;37.08;;;4.60;90.00;;;;;;5094977;28;20036;-73
2021/04/26 01:53:26;;;;;;;60.95;37.88;;;4.70;90.10;;;;;;5081708;28;20492;-73
2021/04/26 01:55:56;;;;;;;57.25;36.90;;;4.70;90.00;;;;;;5082269;28;20020;-73
2021/04/26 01:58:24;;;;;;;67.30;40.47;;;4.60;89.40;;;;;;5079291;28;20020;-73
2021/04/26 02:00:50;;;;;;;68.38;42.05;;;4.60;89.40;;;;;;5079882;28;20024;-73
2021/04/26 02:03:20;;;;;;;69.88;41.33;;;4.50;89.50;;;;;;5092045;28;20032;-73
2021/04/26 02:05:48;;;;;;;77.32;44.78;;;4.50;90.00;;;;;;5095572;28;20027;-74
2021/04/26 02:08:15;;;;;;;69.07;43.42;;;4.50;90.20;;;;;;5091311;28;20024;-73
2021/04/26 02:10:41;;;;;;;78.40;45.03;;;4.60;90.40;;;;;;5094315;28;20458;-74
2021/04/26 02:13:07;;;;;;;82.50;48.08;;;4.60;90.50;;;;;;5089935;28;20024;-73
2021/04/26 02:15:37;;;;;;;52.47;31.30;;;4.70;90.60;;;;;;5095451;28;20454;-73
2021/04/26 02:18:04;;;;;;;54.60;30.45;;;4.70;90.40;;;;;;5088830;28;20023;-73
2021/04/26 02:20:30;;;;;;;43.83;26.92;;;4.70;90.10;;;;;;5073816;28;20027;-73
2021/04/26 02:22:55;;;;;;;38.65;21.83;;;4.70;89.70;;;;;;5086157;28;20028;-73
2021/04/26 02:25:21;;;;;;;31.40;21.58;;;4.70;89.20;;;;;;5092412;28;20027;-73
2021/04/26 02:27:47;;;;;;;39.88;24.70;;;4.60;89.00;;;;;;5083675;28;20039;-73
2021/04/26 02:30:14;;;;;;;42.72;27.45;;;4.60;89.30;;;;;;5092747;28;20377;-73
2021/04/26 02:32:48;;;;;;;47.17;28.02;;;4.60;89.20;;;;;;5089784;28;20020;-73
2021/04/26 02:35:25;;;;;;;42.33;25.75;;;4.50;89.30;;;;;;5089335;28;20100;-73
2021/04/26 02:37:53;;;;;;;58.55;30.92;;;4.50;89.40;;;;;;5079569;28;20149;-74
2021/04/26 02:40:20;;;;;;;68.72;39.33;;;4.50;89.40;;;;;;5094744;28;20031;-73
2021/04/26 02:42:48;;;;;;;31.70;21.83;;;4.50;89.70;;;;;;5092452;28;20036;-73
2021/04/26 02:45:18;;;;;;;33.15;20.20;;;4.50;90.00;;;;;;5094672;28;20016;-72
2021/04/26 02:47:45;;;;;;;35.60;21.52;;;4.50;90.20;;;;;;5077597;28;20024;-73
2021/04/26 02:50:15;;;;;;;41.17;24.02;;;4.70;90.40;;;;;;5094160;28;20028;-72
2021/04/26 02:52:40;;;;;;;39.80;24.85;;;4.80;90.30;;;;;;5093490;28;20031;-75
2021/04/26 02:55:08;;;;;;;36.45;23.42;;;4.80;90.20;;;;;;5094189;28;20078;-72
2021/04/26 02:57:34;;;;;;;31.83;19.55;;;4.90;90.20;;;;;;5082012;28;20028;-72
2021/04/26 03:00:05;;;;;;;45.15;25.55;;;5.00;90.30;;;;;;5092503;28;20020;-72
2021/04/26 03:02:31;;;;;;;28.83;19.55;;;5.10;89.80;;;;;;5086515;28;20032;-73
2021/04/26 03:04:57;;;;;;;43.50;28.90;;;5.10;89.60;;;;;;5091233;28;20472;-73
2021/04/26 03:07:24;;;;;;;44.30;26.73;;;5.20;90.20;;;;;;5083974;28;20367;-73
2021/04/26 03:09:51;;;;;;;43.97;24.40;;;5.40;90.50;;;;;;5088509;28;20047;-72
2021/04/26 03:12:17;;;;;;;49.58;28.90;;;5.70;90.80;;;;;;5087675;28;20081;-73
2021/04/26 03:14:43;;;;;;;49.08;29.98;;;5.90;90.90;;;;;;5094082;28;20051;-72
2021/04/26 03:17:09;;;;;;;49.90;29.13;;;6.20;90.80;;;;;;5093495;28;20044;-73
2021/04/26 03:19:39;;;;;;;45.08;26.25;;;6.40;90.40;;;;;;5088063;28;20402;-74
2021/04/26 03:22:06;;;;;;;48.05;28.70;;;6.50;88.80;;;;;;5091698;28;20032;-73
2021/04/26 03:24:32;;;;;;;40.13;21.45;;;6.50;87.50;;;;;;5093559;28;20027;-73
2021/04/26 03:27:00;;;;;;;46.58;26.23;;;6.50;86.80;;;;;;5085808;28;20020;-73
2021/04/26 03:29:26;;;;;;;37.22;20.05;;;6.50;85.80;;;;;;5089232;28;20454;-73
2021/04/26 03:31:53;;;;;;;51.00;26.88;;;6.40;85.10;;;;;;5089119;28;20028;-73
2021/04/26 03:34:20;;;;;;;50.55;26.33;;;6.30;84.90;;;;;;5093287;28;20091;-74
2021/04/26 03:36:46;;;;;;;41.75;22.00;;;6.20;85.30;;;;;;5083015;28;20206;-74
2021/04/26 03:39:13;;;;;;;31.65;18.30;;;6.20;85.40;;;;;;5085786;28;20370;-74
2021/04/26 03:41:40;;;;;;;29.33;18.33;;;6.20;85.50;;;;;;5092619;28;20032;-74
2021/04/26 03:44:11;;;;;;;25.73;17.73;;;6.20;85.90;;;;;;5093717;28;20024;-74
2021/04/26 03:46:48;;;;;;;25.63;15.13;;;6.20;85.40;;;;;;5078975;28;20023;-75
2021/04/26 03:49:14;;;;;;;23.85;16.63;;;6.10;85.50;;;;;;5092131;28;20032;-74
2021/04/26 03:51:42;;;;;;;31.83;18.58;;;6.10;85.40;;;;;;5084604;28;20420;-74
2021/04/26 03:54:08;;;;;;;47.40;30.25;;;6.20;85.80;;;;;;5093312;28;20034;-73
2021/04/26 03:56:34;;;;;;;51.65;31.63;;;6.20;86.10;;;;;;5089678;28;20020;-73
2021/04/26 03:58:59;;;;;;;51.83;31.65;;;6.30;86.20;;;;;;5085763;28;20036;-74
2021/04/26 04:01:25;;;;;;;49.78;31.58;;;6.40;86.30;;;;;;5083904;28;20078;-74
2021/04/26 04:03:50;;;;;;;46.65;30.35;;;6.40;86.20;;;;;;5093438;28;20028;-73
2021/04/26 04:06:16;;;;;;;66.13;36.38;;;6.50;85.90;;;;;;5080476;28;20025;-77
2021/04/26 04:08:42;;;;;;;60.90;34.50;;;6.60;85.80;;;;;;5078634;28;20407;-73
2021/04/26 04:11:07;;;;;;;61.38;36.30;;;6.60;85.50;;;;;;5087753;28;20551;-74
2021/04/26 04:13:33;;;;;;;71.10;39.63;;;6.70;85.30;;;;;;5089981;28;20020;-73
2021/04/26 04:15:58;;;;;;;66.30;37.65;;;6.70;84.80;;;;;;5092847;28;20016;-73
2021/04/26 04:18:24;;;;;;;74.82;40.65;;;6.70;84.80;;;;;;5092643;28;20016;-80
2021/04/26 04:20:50;;;;;;;62.45;37.47;;;6.70;84.80;;;;;;5085585;28;20099;-73
2021/04/26 04:23:15;;;;;;;57.08;33.55;;;6.70;84.70;;;;;;5089830;28;20135;-73
2021/04/26 04:25:41;;;;;;;60.60;33.88;;;6.70;84.90;;;;;;5092416;28;20418;-72
2021/04/26 04:28:07;;;;;;;56.28;30.77;;;6.70;85.10;;;;;;5093389;28;20024;-73
2021/04/26 04:30:33;;;;;;;51.30;29.52;;;6.70;85.20;;;;;;5091170;28;20020;-73
2021/04/26 04:32:58;;;;;;;44.30;26.02;;;6.70;85.20;;;;;;5082410;28;20024;-73
2021/04/26 04:35:24;;;;;;;39.65;26.55;;;6.60;85.20;;;;;;5088455;28;20024;-72
2021/04/26 04:37:49;;;;;;;41.55;26.48;;;6.60;85.50;;;;;;5087735;28;20040;-72
2021/04/26 04:40:15;;;;;;;36.42;23.48;;;6.60;86.10;;;;;;5078053;28;20038;-72
2021/04/26 04:42:41;;;;;;;35.30;22.88;;;6.60;86.10;;;;;;5091369;28;20111;-73
2021/04/26 04:45:07;;;;;;;31.45;22.48;;;6.50;85.80;;;;;;5087489;28;20023;-72
2021/04/26 04:47:32;;;;;;;31.95;22.55;;;6.40;86.20;;;;;;5092803;28;20034;-74
2021/04/26 04:49:58;;;;;;;30.83;19.13;;;6.30;86.40;;;;;;5076845;28;20020;-73
2021/04/26 04:52:24;;;;;;;24.23;17.17;;;6.30;86.50;;;;;;5084303;28;20047;-73
2021/04/26 04:54:49;;;;;;;34.30;16.90;;;6.20;86.40;;;;;;5082935;28;20028;-77
2021/04/26 04:57:15;;;;;;;37.05;19.05;;;6.10;86.70;;;;;;5087818;28;20020;-77
2021/04/26 04:59:41;;;;;;;43.28;21.60;;;6.00;86.30;;;;;;5087151;28;20465;-77
2021/04/26 05:02:06;;;;;;;44.58;25.90;;;5.90;86.10;;;;;;5080335;28;20512;-77
2021/04/26 05:04:32;;;;;;;32.33;17.00;;;5.80;86.50;;;;;;5084254;28;20066;-78
2021/04/26 05:07:00;;;;;;;31.05;18.67;;;5.70;86.70;;;;;;5091283;28;20030;-78
2021/04/26 05:09:26;;;;;;;31.15;17.55;;;5.60;87.20;;;;;;5091661;28;20095;-78
2021/04/26 05:11:51;;;;;;;25.33;15.25;;;5.60;87.60;;;;;;5080788;28;20438;-77
2021/04/26 05:14:17;;;;;;;19.65;14.35;;;5.50;88.20;;;;;;5086324;28;20031;-77
2021/04/26 05:16:43;;;;;;;22.13;15.40;;;5.50;88.30;;;;;;5095123;28;20069;-79
2021/04/26 05:19:09;;;;;;;20.30;14.10;;;5.50;88.50;;;;;;5090536;28;20020;-78
2021/04/26 05:21:34;;;;;;;27.50;20.17;;;5.50;88.30;;;;;;5094564;28;20056;-77
2021/04/26 05:24:00;;;;;;;33.88;26.23;;;5.50;88.50;;;;;;5087722;28;20462;-76
2021/04/26 05:26:27;;;;;;;25.80;18.00;;;5.50;89.00;;;;;;5095416;28;20028;-80
2021/04/26 05:28:53;;;;;;;23.00;14.90;;;5.50;89.30;;;;;;5093968;28;20024;-75
2021/04/26 05:31:19;;;;;;;24.60;16.15;;;5.60;89.70;;;;;;5091905;28;20043;-73
2021/04/26 05:33:44;;;;;;;25.58;15.57;;;5.60;90.00;;;;;;5093027;28;20024;-73
2021/04/26 05:36:10;;;;;;;29.65;18.38;;;5.70;89.60;;;;;;5089093;28;20037;-75
2021/04/26 05:38:36;;;;;;;26.35;16.75;;;5.70;89.00;;;;;;5092666;28;20032;-74
2021/04/26 05:41:02;;;;;;;23.15;14.98;;;5.70;89.10;;;;;;5092360;28;20024;-75
2021/04/26 05:43:28;;;;;;;23.20;14.90;;;5.70;89.20;;;;;;5093615;28;20047;-76
2021/04/26 05:45:53;;;;;;;21.45;14.85;;;5.70;89.20;;;;;;5094792;28;20370;-75
2021/04/26 05:48:19;;;;;;;24.20;16.30;;;5.70;89.30;;;;;;5089908;28;20024;-75
2021/04/26 05:50:45;;;;;;;23.60;15.07;;;5.80;89.10;;;;;;5094489;28;20028;-75
2021/04/26 05:53:11;;;;;;;25.50;16.58;;;5.70;88.50;;;;;;5088050;28;20450;-75
2021/04/26 05:55:36;;;;;;;27.08;18.00;;;5.70;88.30;;;;;;5091658;28;20053;-75
2021/04/26 05:58:02;;;;;;;26.85;16.67;;;5.60;88.20;;;;;;5093053;28;20024;-74
2021/04/26 06:00:28;;;;;;;23.77;16.40;;;5.50;88.70;;;;;;5093461;28;20028;-75
2021/04/26 06:02:53;;;;;;;24.10;16.27;;;5.50;88.90;;;;;;5094807;28;20035;-75
2021/04/26 06:05:19;;;;;;;29.30;19.75;;;5.50;89.10;;;;;;5090408;28;20069;-78
2021/04/26 06:07:45;;;;;;;26.90;18.25;;;5.40;89.10;;;;;;5095286;28;20024;-74
2021/04/26 06:10:12;;;;;;;26.80;19.08;;;5.40;89.40;;;;;;5094921;28;20044;-75
2021/04/26 06:12:38;;;;;;;24.77;16.92;;;5.40;89.70;;;;;;5092265;28;20031;-75
2021/04/26 06:15:05;;;;;;;13.57;9.15;;;5.40;89.80;;;;;;5087321;28;20024;-80
2021/04/26 06:17:31;;;;;;;10.95;7.28;;;5.30;89.30;;;;;;5089250;28;20024;-77
2021/04/26 06:19:56;;;;;;;7.10;5.80;;;5.10;88.30;;;;;;5092574;28;20024;-80
2021/04/26 06:22:22;;;;;;;6.63;4.95;;;4.90;88.40;;;;;;5089789;28;20040;-78
2021/04/26 06:24:48;;;;;;;5.88;4.70;;;4.70;88.40;;;;;;5092104;28;20464;-76
2021/04/26 06:27:13;;;;;;;7.60;5.30;;;4.50;88.90;;;;;;5092350;28;20061;-76
2021/04/26 06:29:39;;;;;;;8.02;5.68;;;4.30;89.40;;;;;;5089615;28;20351;-77
2021/04/26 06:32:05;;;;;;;8.35;5.90;;;4.20;90.00;;;;;;5095574;28;20052;-78
2021/04/26 06:34:30;;;;;;;10.57;6.63;;;4.10;90.40;;;;;;5091692;28;20020;-77
2021/04/26 06:36:56;;;;;;;11.07;8.00;;;4.10;90.70;;;;;;5086328;28;20024;-78
2021/04/26 06:39:23;;;;;;;8.48;5.85;;;4.10;91.00;;;;;;5093366;28;20088;-78
2021/04/26 06:41:49;;;;;;;9.35;6.40;;;4.10;91.20;;;;;;5091807;28;20028;-76
2021/04/26 06:44:15;;;;;;;9.60;5.65;;;4.10;91.40;;;;;;5091452;28;20362;-77
2021/04/26 06:46:40;;;;;;;7.32;5.22;;;4.10;91.50;;;;;;5087471;28;20051;-76
2021/04/26 06:49:06;;;;;;;7.28;4.85;;;4.10;91.60;;;;;;5086840;28;20023;-76
2021/04/26 06:51:31;;;;;;;6.82;4.50;;;4.10;91.70;;;;;;5085304;28;20024;-76
2021/04/26 06:53:58;;;;;;;5.78;4.47;;;4.00;91.70;;;;;;5094232;28;20020;-77
2021/04/26 06:56:23;;;;;;;5.50;3.90;;;4.00;91.70;;;;;;5084272;28;20125;-77
2021/04/26 06:58:49;;;;;;;5.85;4.00;;;4.00;91.80;;;;;;5085625;28;20025;-77
2021/04/26 07:01:15;;;;;;;6.00;4.05;;;4.00;91.70;;;;;;5091764;28;20054;-76
2021/04/26 07:03:41;;;;;;;4.93;3.20;;;3.90;91.90;;;;;;5079178;28;20059;-76
2021/04/26 07:06:06;;;;;;;3.67;2.67;;;3.90;91.90;;;;;;5091998;28;20024;-76
2021/04/26 07:08:32;;;;;;;4.75;2.85;;;3.90;91.60;;;;;;5091459;28;20024;-80
2021/04/26 07:11:01;;;;;;;4.10;2.95;;;3.80;91.60;;;;;;5086722;28;20040;-76
2021/04/26 07:13:27;;;;;;;4.47;3.25;;;3.80;91.90;;;;;;5085048;28;20028;-76
2021/04/26 07:15:53;;;;;;;5.57;3.95;;;3.80;92.10;;;;;;5085695;28;20020;-76
2021/04/26 07:18:19;;;;;;;3.33;2.88;;;3.90;92.40;;;;;;5089207;28;20027;-76
2021/04/26 07:20:44;;;;;;;4.00;2.40;;;4.00;92.40;;;;;;5083341;28;20031;-75
2021/04/26 07:23:10;;;;;;;3.85;2.75;;;4.00;92.40;;;;;;5083116;28;20132;-80
2021/04/26 07:25:35;;;;;;;4.60;2.70;;;4.10;92.30;;;;;;5089557;28;20441;-75
2021/04/26 07:28:01;;;;;;;2.83;2.20;;;4.10;92.20;;;;;;5083803;28;20370;-75
2021/04/26 07:30:27;;;;;;;3.13;2.13;;;4.20;92.10;;;;;;5086415;28;20039;-77
2021/04/26 07:32:53;;;;;;;3.17;2.40;;;4.20;92.10;;;;;;5088593;28;20016;-76
2021/04/26 07:35:19;;;;;;;3.05;2.22;;;4.20;92.10;;;;;;5084471;28;20106;-75
2021/04/26 07:37:45;;;;;;;2.83;2.30;;;4.30;92.10;;;;;;5087359;28;20416;-76
2021/04/26 07:40:13;;;;;;;2.47;2.10;;;4.30;92.10;;;;;;5091600;28;20044;-76
2021/04/26 07:42:41;;;;;;;3.75;2.60;;;4.40;92.10;;;;;;5090096;28;20029;-75
2021/04/26 07:45:07;;;;;;;3.10;2.40;;;4.50;92.10;;;;;;5092462;28;20020;-75
2021/04/26 07:47:33;;;;;;;2.65;2.10;;;4.60;91.90;;;;;;5088708;28;20115;-76
2021/04/26 07:49:59;;;;;;;2.67;2.15;;;4.60;91.90;;;;;;5088358;28;20103;-76
2021/04/26 07:52:25;;;;;;;2.35;1.75;;;4.60;91.30;;;;;;5086410;28;20039;-79
2021/04/26 07:54:50;;;;;;;2.72;2.10;;;4.50;91.10;;;;;;5090330;28;20027;-76
2021/04/26 07:57:16;;;;;;;4.05;2.47;;;4.40;91.20;;;;;;5087644;28;20409;-75
2021/04/26 07:59:42;;;;;;;3.55;2.30;;;4.50;91.50;;;;;;5091904;28;20348;-75
2021/04/26 08:02:07;;;;;;;5.35;2.60;;;4.50;91.50;;;;;;5084292;28;20109;-75
2021/04/26 08:04:33;;;;;;;2.95;2.15;;;4.50;91.40;;;;;;5090773;28;20473;-75
2021/04/26 08:06:59;;;;;;;3.00;2.47;;;4.50;91.40;;;;;;5091483;28;20095;-76
2021/04/26 08:09:24;;;;;;;3.55;2.50;;;4.50;91.30;;;;;;5085793;28;20369;-75
2021/04/26 08:11:50;;;;;;;3.28;2.22;;;4.50;91.40;;;;;;5089070;28;20498;-75
2021/04/26 08:14:16;;;;;;;2.88;2.40;;;4.50;91.30;;;;;;5090649;28;20518;-75
2021/04/26 08:16:43;;;;;;;3.22;2.40;;;4.50;91.30;;;;;;5083913;28;20111;-77
2021/04/26 08:19:10;;;;;;;3.28;2.42;;;4.50;91.10;;;;;;5090306;28;20363;-78
2021/04/26 08:21:36;;;;;;;4.30;2.80;;;4.50;91.30;;;;;;5084595;28;20038;-77
2021/04/26 08:24:02;;;;;;;3.85;2.47;;;4.50;91.40;;;;;;5086575;28;20093;-77
2021/04/26 08:26:28;;;;;;;4.50;2.97;;;4.50;91.30;;;;;;5092324;28;20198;-78
2021/04/26 08:28:54;;;;;;;3.90;2.88;;;4.50;91.40;;;;;;5081036;28;20454;-78
2021/04/26 08:31:19;;;;;;;5.28;3.00;;;4.50;91.30;;;;;;5091271;28;20446;-76
2021/04/26 08:33:45;;;;;;;4.75;3.38;;;4.50;91.30;;;;;;5090516;28;20096;-77
2021/04/26 08:36:11;;;;;;;4.60;3.22;;;4.60;91.40;;;;;;5086898;28;20089;-78
2021/04/26 08:38:38;;;;;;;4.50;3.20;;;4.60;91.20;;;;;;5081288;28;20036;-78
2021/04/26 08:41:03;;;;;;;5.05;3.45;;;4.50;91.10;;;;;;5085198;28;20024;-77
2021/04/26 08:43:29;;;;;;;4.38;3.20;;;4.50;91.20;;;;;;5088288;28;20036;-77
2021/04/26 08:45:58;;;;;;;3.88;2.97;;;4.60;91.20;;;;;;5087371;28;20024;-77
2021/04/26 08:48:25;;;;;;;3.65;2.80;;;4.50;91.20;;;;;;5094739;28;20366;-80
2021/04/26 08:50:50;;;;;;;3.95;3.05;;;4.60;91.20;;;;;;5093425;28;20028;-79
2021/04/26 08:53:16;;;;;;;4.93;3.10;;;4.60;91.10;;;;;;5093134;28;20473;-77
2021/04/26 08:55:42;;;;;;;4.05;3.05;;;4.60;91.00;;;;;;5090789;28;20129;-80
2021/04/26 08:58:08;;;;;;;5.50;3.35;;;4.60;90.90;;;;;;5088484;28;20049;-70
2021/04/26 09:00:33;;;;;;;3.92;3.13;;;4.50;90.80;;;;;;5090866;28;20031;-71
2021/04/26 09:03:01;;;;;;;4.13;3.13;;;4.50;90.80;;;;;;5090836;28;20028;-70
2021/04/26 09:05:27;;;;;;;3.88;3.17;;;4.50;91.00;;;;;;5094583;28;20053;-71
2021/04/26 09:07:57;;;;;;;5.15;3.38;;;4.50;90.90;;;;;;5093870;28;20462;-69
2021/04/26 09:10:41;;;;;;;5.07;3.67;;;4.50;91.00;;;;;;5093316;28;20044;-70
2021/04/26 09:13:35;;;;;;;5.30;3.70;;;4.60;91.00;;;;;;5094767;28;20369;-70
2021/04/26 09:16:07;;;;;;;5.45;3.78;;;4.60;91.10;;;;;;5089240;28;20047;-70
2021/04/26 09:19:01;;;;;;;5.50;3.92;;;4.70;91.40;;;;;;5092238;28;20028;-69
2021/04/26 09:21:35;;;;;;;5.65;4.00;;;4.90;91.40;;;;;;5087887;28;20032;-71
2021/04/26 09:24:18;;;;;;;7.32;4.95;;;5.10;91.20;;;;;;5090615;28;20024;-70
2021/04/26 09:26:50;;;;;;;5.85;4.03;;;5.30;91.30;;;;;;5094051;28;20025;-71
2021/04/26 09:29:24;;;;;;;5.28;3.33;;;5.40;91.10;;;;;;5094114;28;20036;-69
2021/04/26 09:32:12;;;;;;;4.97;3.17;;;5.50;90.70;;;;;;5090425;28;20339;-70
2021/04/26 09:34:52;;;;;;;4.15;3.13;;;5.70;90.20;;;;;;5086455;28;20043;-71
2021/04/26 09:37:36;;;;;;;3.55;2.72;;;5.70;90.00;;;;;;5082591;28;20027;-70
2021/04/26 09:40:11;;;;;;;3.75;2.90;;;5.70;88.80;;;;;;5081369;28;20054;-72
2021/04/26 09:42:42;;;;;;;3.85;2.80;;;5.80;89.20;;;;;;5086121;28;20036;-70
2021/04/26 09:45:35;;;;;;;4.40;3.28;;;6.00;89.60;;;;;;5090674;28;20077;-71
2021/04/26 09:48:21;;;;;;;3.78;2.90;;;6.10;88.80;;;;;;5091225;28;20024;-69
2021/04/26 09:50:54;;;;;;;;;;;6.30;88.90;;;;;;5089428;28;20539;-71
2021/04/26 09:53:20;;;;;;;3.55;2.40;;;6.40;88.00;;;;;;5091183;28;19947;-70
2021/04/26 09:55:45;;;;;;;3.55;2.58;;;6.60;87.40;;;;;;5090288;28;20055;-71
2021/04/26 09:58:12;;;;;;;4.35;2.67;;;6.70;86.90;;;;;;5090498;28;20016;-68
2021/04/26 10:00:38;;;;;;;4.03;2.42;;;6.90;86.60;;;;;;5090715;28;20047;-70
2021/04/26 10:03:04;;;;;;;3.35;2.25;;;7.10;85.70;;;;;;5090747;28;20143;-69
2021/04/26 10:05:30;;;;;;;3.35;2.40;;;7.20;84.00;;;;;;5083551;28;20020;-69
2021/04/26 10:07:56;;;;;;;2.60;2.20;;;7.30;82.60;;;;;;5092866;28;20027;-72
2021/04/26 10:10:22;;;;;;;3.45;2.50;;;7.40;82.50;;;;;;5089588;28;20060;-71
2021/04/26 10:12:48;;;;;;;3.50;2.70;;;7.60;81.80;;;;;;5087551;28;20374;-79
2021/04/26 10:15:14;;;;;;;3.40;2.58;;;7.70;80.90;;;;;;5095116;28;20020;-71
2021/04/26 10:17:45;;;;;;;3.28;2.30;;;7.90;80.80;;;;;;5092858;28;20039;-70
2021/04/26 10:20:11;;;;;;;4.03;2.45;;;8.30;80.20;;;;;;5092362;28;20031;-69
2021/04/26 10:22:39;;;;;;;4.72;2.63;;;8.80;79.70;;;;;;5094363;28;20432;-71
2021/04/26 10:25:10;;;;;;;3.42;2.35;;;9.20;77.70;;;;;;5092580;28;20424;-69
2021/04/26 10:27:40;;;;;;;2.83;2.08;;;9.50;75.80;;;;;;5093633;28;20024;-68
2021/04/26 10:30:10;;;;;;;3.88;2.28;;;9.50;74.00;;;;;;5093171;28;20460;-68
2021/04/26 10:33:03;;;;;;;3.10;2.00;;;9.60;72.90;;;;;;5094787;28;20458;-68
2021/04/26 10:35:46;;;;;;;2.78;1.90;;;9.50;71.40;;;;;;5090802;28;20028;-67
2021/04/26 10:38:34;;;;;;;4.45;2.20;;;9.40;70.30;;;;;;5087605;28;20470;-67
2021/04/26 10:41:04;;;;;;;2.47;1.90;;;9.20;70.50;;;;;;5090702;28;20020;-67
2021/04/26 10:43:31;;;;;;;3.05;2.20;;;9.10;70.50;;;;;;5093522;28;20032;-67
2021/04/26 10:46:15;;;;;;;4.18;2.33;;;9.10;69.80;;;;;;5091512;28;20274;-68
2021/04/26 10:49:21;;;;;;;4.22;2.15;;;9.00;69.40;;;;;;5081261;28;20450;-70
2021/04/26 10:51:47;;;;;;;3.00;2.10;;;8.90;69.70;;;;;;5029762;28;20029;-67
2021/04/26 10:54:42;;;;;;;4.38;2.72;;;8.90;69.20;;;;;;5029605;28;20042;-67
2021/04/26 10:57:40;;;;;;;2.95;2.13;;;8.80;68.90;;;;;;5053680;28;20123;-67
2021/04/26 11:00:28;;;;;;;4.18;2.42;;;8.80;69.10;;;;;;5091491;28;20020;-68
2021/04/26 11:03:06;;;;;;;4.30;2.53;;;8.90;69.20;;;;;;5092021;28;20028;-67
2021/04/26 11:05:40;;;;;;;4.38;2.40;;;9.00;69.00;;;;;;5080533;28;20024;-67
2021/04/26 11:10:47;;;;;;;4.93;2.45;;;9.00;68.00;;;;;;5093297;28;20131;-67
2021/04/26 11:13:31;;;;;;;4.43;2.67;;;8.80;67.40;;;;;;5094075;28;20062;-67
2021/04/26 11:16:13;;;;;;;3.72;2.60;;;8.70;67.70;;;;;;5093975;28;20052;-67
2021/04/26 11:18:52;;;;;;;6.10;2.70;;;8.70;68.10;;;;;;5108726;28;20365;-67
2021/04/26 11:21:47;;;;;;;6.63;3.53;;;8.70;67.90;;;;;;5094022;28;20548;-67
2021/04/26 11:24:23;;;;;;;3.95;2.33;;;8.60;67.80;;;;;;5081557;28;20031;-68
2021/04/26 11:27:07;;;;;;;4.05;2.58;;;8.40;67.70;;;;;;5092924;28;20012;-68
2021/04/26 11:29:33;;;;;;;4.82;3.00;;;8.40;68.30;;;;;;5093864;28;20055;-68
2021/04/26 11:32:04;;;;;;;3.25;2.22;;;8.50;68.20;;;;;;5093301;28;20028;-68
2021/04/26 11:34:50;;;;;;;3.30;2.40;;;8.60;67.80;;;;;;5091819;28;20027;-68
2021/04/26 11:37:27;;;;;;;3.83;2.63;;;8.60;67.60;;;;;;5093693;28;20047;-67
2021/04/26 11:39:55;;;;;;;2.75;1.92;;;8.70;67.80;;;;;;5109499;28;20016;-67
2021/04/26 11:42:24;;;;;;;4.15;2.30;;;8.80;67.80;;;;;;5092325;28;20063;-67
2021/04/26 11:44:51;;;;;;;5.53;2.63;;;9.20;68.40;;;;;;5072174;28;20111;-67
2021/04/26 11:47:18;;;;;;;5.43;2.60;;;9.50;67.50;;;;;;5085269;28;20049;-67
2021/04/26 11:49:46;;;;;;;5.20;2.30;;;9.70;67.00;;;;;;5073587;28;20451;-67
2021/04/26 11:52:16;;;;;;;4.38;2.20;;;10.00;66.90;;;;;;5083372;28;20020;-68
2021/04/26 11:54:46;;;;;;;5.20;2.80;;;10.10;65.70;;;;;;5091621;28;20028;-68
2021/04/26 11:57:16;;;;;;;3.38;2.30;;;10.00;64.40;;;;;;5092967;28;20023;-67
2021/04/26 11:59:51;;;;;;;3.00;2.20;;;9.90;64.60;;;;;;5093411;28;20044;-68
2021/04/26 12:02:29;;;;;;;3.78;2.20;;;9.80;64.30;;;;;;5082740;28;20041;-68
2021/04/26 12:05:03;;;;;;;4.53;2.40;;;9.80;64.20;;;;;;5089835;28;20055;-68
2021/04/26 12:07:29;;;;;;;3.83;2.42;;;9.80;64.30;;;;;;5082003;28;20025;-68
2021/04/26 12:09:56;;;;;;;3.80;2.60;;;9.70;63.80;;;;;;5088855;28;20094;-68
2021/04/26 12:12:26;;;;;;;4.18;2.10;;;9.60;63.70;;;;;;5092925;28;20074;-68
2021/04/26 12:15:16;;;;;;;3.83;2.40;;;9.50;63.80;;;;;;5092888;28;20043;-68
2021/04/26 12:17:44;;;;;;;3.70;2.28;;;9.70;64.60;;;;;;5092243;28;20024;-68
2021/04/26 12:20:17;;;;;;;3.50;2.45;;;9.80;64.10;;;;;;5107750;28;20129;-67
2021/04/26 12:22:44;;;;;;;5.35;2.42;;;9.80;63.70;;;;;;5092589;28;20031;-68
2021/04/26 12:25:11;;;;;;;4.15;2.78;;;10.00;64.00;;;;;;5092491;28;20023;-68
2021/04/26 12:27:38;;;;;;;4.25;2.50;;;10.00;63.20;;;;;;5093172;28;20032;-68
2021/04/26 12:30:10;;;;;;;3.90;2.53;;;9.90;62.70;;;;;;5093266;28;20103;-68
2021/04/26 12:32:36;;;;;;;3.72;2.40;;;9.70;63.00;;;;;;5092658;28;20028;-68
2021/04/26 12:35:05;;;;;;;4.22;2.55;;;9.70;62.60;;;;;;5092797;28;20366;-68
2021/04/26 12:37:33;;;;;;;5.35;2.15;;;9.60;62.50;;;;;;5091392;28;20024;-68
2021/04/26 12:40:20;;;;;;;4.10;2.50;;;9.60;62.30;;;;;;5092684;28;20446;-68
2021/04/26 12:42:49;;;;;;;8.27;2.83;;;9.60;63.00;;;;;;5092177;28;20731;-68
2021/04/26 12:45:21;;;;;;;3.70;2.22;;;9.80;62.90;;;;;;5108506;28;20027;-68
2021/04/26 12:47:58;;;;;;;4.05;2.40;;;9.80;62.30;;;;;;5091333;28;20024;-68
2021/04/26 12:50:32;;;;;;;5.95;2.50;;;9.70;62.60;;;;;;5081888;28;20478;-73
2021/04/26 12:53:07;;;;;;;3.55;2.40;;;9.70;62.20;;;;;;5087946;28;20466;-68
2021/04/26 12:56:11;;;;;;;4.50;2.65;;;9.60;62.50;;;;;;5092774;28;20444;-68
2021/04/26 12:58:49;;;;;;;3.35;2.60;;;9.70;63.20;;;;;;5077152;28;20070;-69
2021/04/26 13:01:18;;;;;;;3.88;2.47;;;9.80;63.40;;;;;;5092543;28;20044;-68